sensor_id;sensor_type;location;lat;lon;timestamp;pressure;altitude;pressure_sealevel;temperature;humidity
46638;BME280;32365;46.938;7.390;2023-05-25T04:54:06;95311.22;;;8.90;91.79
46638;BME280;32365;46.938;7.390;2023-05-25T04:56:32;95314.03;;;8.70;92.38
46638;BME280;32365;46.938;7.390;2023-05-25T04:58:59;95309.66;;;8.89;90.98
46638;BME280;32365;46.938;7.390;2023-05-25T05:01:25;95315.13;;;8.81;91.98
46638;BME280;32365;46.938;7.390;2023-05-25T05:03:53;95316.97;;;8.92;92.39
46638;BME280;32365;46.938;7.390;2023-05-25T05:06:19;95328.88;;;8.93;93.54
46638;BME280;32365;46.938;7.390;2023-05-25T05:08:46;95328.44;;;8.78;93.80
46638;BME280;32365;46.938;7.390;2023-05-25T05:11:13;95326.13;;;9.07;92.96
46638;BME280;32365;46.938;7.390;2023-05-25T05:13:40;95327.91;;;9.06;92.41
46638;BME280;32365;46.938;7.390;2023-05-25T05:16:06;95336.81;;;8.92;93.45
46638;BME280;32365;46.938;7.390;2023-05-25T05:18:33;95333.72;;;9.32;93.22
46638;BME280;32365;46.938;7.390;2023-05-25T05:20:59;95334.16;;;9.29;92.47
46638;BME280;32365;46.938;7.390;2023-05-25T05:23:26;95333.84;;;9.37;91.71
46638;BME280;32365;46.938;7.390;2023-05-25T05:25:52;95342.56;;;9.79;90.70
46638;BME280;32365;46.938;7.390;2023-05-25T05:28:20;95351.78;;;9.63;90.95
46638;BME280;32365;46.938;7.390;2023-05-25T05:30:51;95338.88;;;9.98;91.14
46638;BME280;32365;46.938;7.390;2023-05-25T05:33:17;95342.47;;;10.09;89.13
46638;BME280;32365;46.938;7.390;2023-05-25T05:35:44;95336.06;;;10.12;90.61
46638;BME280;32365;46.938;7.390;2023-05-25T05:38:11;95339.00;;;10.63;88.37
46638;BME280;32365;46.938;7.390;2023-05-25T05:40:37;95338.19;;;10.62;86.88
46638;BME280;32365;46.938;7.390;2023-05-25T05:43:04;95341.00;;;10.61;88.06
46638;BME280;32365;46.938;7.390;2023-05-25T05:45:32;95330.22;;;10.28;88.24
46638;BME280;32365;46.938;7.390;2023-05-25T05:47:58;95333.56;;;10.65;88.54
46638;BME280;32365;46.938;7.390;2023-05-25T05:50:25;95330.22;;;10.52;87.57
46638;BME280;32365;46.938;7.390;2023-05-25T05:52:51;95331.81;;;10.41;89.37
46638;BME280;32365;46.938;7.390;2023-05-25T05:55:18;95333.25;;;10.37;90.14
46638;BME280;32365;46.938;7.390;2023-05-25T05:57:45;95323.66;;;10.61;88.13
46638;BME280;32365;46.938;7.390;2023-05-25T06:00:13;95332.94;;;10.86;87.26
46638;BME280;32365;46.938;7.390;2023-05-25T06:02:41;95337.56;;;10.84;85.50
46638;BME280;32365;46.938;7.390;2023-05-25T06:05:08;95340.31;;;11.06;84.08
46638;BME280;32365;46.938;7.390;2023-05-25T06:07:35;95340.41;;;10.83;86.00
46638;BME280;32365;46.938;7.390;2023-05-25T06:10:03;95357.19;;;10.68;85.70
46638;BME280;32365;46.938;7.390;2023-05-25T06:12:29;95356.50;;;10.85;85.72
46638;BME280;32365;46.938;7.390;2023-05-25T06:14:56;95356.81;;;10.88;85.89
46638;BME280;32365;46.938;7.390;2023-05-25T06:17:22;95359.25;;;10.54;86.13
46638;BME280;32365;46.938;7.390;2023-05-25T06:19:50;95363.75;;;10.47;87.02
46638;BME280;32365;46.938;7.390;2023-05-25T06:22:16;95364.88;;;10.51;85.82
46638;BME280;32365;46.938;7.390;2023-05-25T06:24:43;95353.50;;;10.52;85.82
46638;BME280;32365;46.938;7.390;2023-05-25T06:27:09;95351.34;;;10.73;85.44
46638;BME280;32365;46.938;7.390;2023-05-25T06:29:37;95356.88;;;11.05;84.02
46638;BME280;32365;46.938;7.390;2023-05-25T06:32:04;95365.28;;;11.13;84.02
46638;BME280;32365;46.938;7.390;2023-05-25T06:34:31;95372.09;;;10.49;85.62
46638;BME280;32365;46.938;7.390;2023-05-25T06:36:59;95372.56;;;10.46;86.95
46638;BME280;32365;46.938;7.390;2023-05-25T06:39:26;95375.34;;;10.56;85.52
46638;BME280;32365;46.938;7.390;2023-05-25T06:41:52;95373.06;;;10.72;84.97
46638;BME280;32365;46.938;7.390;2023-05-25T06:44:19;95374.72;;;10.90;84.52
46638;BME280;32365;46.938;7.390;2023-05-25T06:46:45;95370.47;;;10.72;85.98
46638;BME280;32365;46.938;7.390;2023-05-25T06:49:12;95368.81;;;10.66;86.08
46638;BME280;32365;46.938;7.390;2023-05-25T06:51:38;95372.66;;;10.63;87.11
46638;BME280;32365;46.938;7.390;2023-05-25T06:54:06;95379.94;;;10.78;84.52
46638;BME280;32365;46.938;7.390;2023-05-25T06:56:33;95381.31;;;10.69;84.82
46638;BME280;32365;46.938;7.390;2023-05-25T06:59:00;95384.47;;;10.47;86.65
46638;BME280;32365;46.938;7.390;2023-05-25T07:01:26;95382.09;;;10.57;84.46
46638;BME280;32365;46.938;7.390;2023-05-25T07:03:52;95377.94;;;11.09;84.08
46638;BME280;32365;46.938;7.390;2023-05-25T07:06:19;95391.88;;;10.79;83.79
46638;BME280;32365;46.938;7.390;2023-05-25T07:08:45;95383.66;;;10.82;84.27
46638;BME280;32365;46.938;7.390;2023-05-25T07:11:13;95391.19;;;10.84;84.84
46638;BME280;32365;46.938;7.390;2023-05-25T07:13:40;95407.81;;;11.00;84.06
46638;BME280;32365;46.938;7.390;2023-05-25T07:16:06;95416.97;;;10.55;83.88
46638;BME280;32365;46.938;7.390;2023-05-25T07:18:33;95415.25;;;10.37;85.44
46638;BME280;32365;46.938;7.390;2023-05-25T07:20:59;95413.47;;;10.25;86.40
46638;BME280;32365;46.938;7.390;2023-05-25T07:23:26;95410.78;;;10.56;86.50
46638;BME280;32365;46.938;7.390;2023-05-25T07:25:52;95417.72;;;11.03;84.29
46638;BME280;32365;46.938;7.390;2023-05-25T07:28:20;95420.81;;;11.17;82.66
46638;BME280;32365;46.938;7.390;2023-05-25T07:30:46;95420.25;;;11.27;82.93
46638;BME280;32365;46.938;7.390;2023-05-25T07:33:13;95426.31;;;11.32;81.73
46638;BME280;32365;46.938;7.390;2023-05-25T07:35:39;95431.44;;;11.44;83.16
46638;BME280;32365;46.938;7.390;2023-05-25T07:38:06;95428.34;;;11.30;81.45
46638;BME280;32365;46.938;7.390;2023-05-25T07:40:32;95421.00;;;10.86;83.04
46638;BME280;32365;46.938;7.390;2023-05-25T07:42:59;95432.19;;;11.16;82.93
46638;BME280;32365;46.938;7.390;2023-05-25T07:45:26;95443.50;;;10.98;83.53
46638;BME280;32365;46.938;7.390;2023-05-25T07:47:53;95440.31;;;11.19;83.65
46638;BME280;32365;46.938;7.390;2023-05-25T07:50:20;95436.78;;;10.73;84.67
46638;BME280;32365;46.938;7.390;2023-05-25T07:52:47;95445.03;;;10.70;84.11
46638;BME280;32365;46.938;7.390;2023-05-25T07:55:14;95451.88;;;10.76;84.59
46638;BME280;32365;46.938;7.390;2023-05-25T07:57:40;95456.94;;;10.71;84.27
46638;BME280;32365;46.938;7.390;2023-05-25T08:00:08;95461.34;;;10.70;84.73
46638;BME280;32365;46.938;7.390;2023-05-25T08:02:36;95466.81;;;10.98;84.27
46638;BME280;32365;46.938;7.390;2023-05-25T08:05:03;95467.97;;;10.78;83.52
46638;BME280;32365;46.938;7.390;2023-05-25T08:07:31;95469.31;;;10.81;83.29
46638;BME280;32365;46.938;7.390;2023-05-25T08:09:57;95470.41;;;11.08;83.27
46638;BME280;32365;46.938;7.390;2023-05-25T08:12:24;95482.50;;;10.55;84.69
46638;BME280;32365;46.938;7.390;2023-05-25T08:14:50;95482.69;;;11.01;83.36
46638;BME280;32365;46.938;7.390;2023-05-25T08:17:18;95494.41;;;10.68;84.50
46638;BME280;32365;46.938;7.390;2023-05-25T08:19:46;95486.44;;;10.70;84.23
46638;BME280;32365;46.938;7.390;2023-05-25T08:22:12;95481.09;;;11.12;83.47
46638;BME280;32365;46.938;7.390;2023-05-25T08:24:39;95479.72;;;11.33;82.77
46638;BME280;32365;46.938;7.390;2023-05-25T08:27:05;95490.00;;;11.04;81.92
46638;BME280;32365;46.938;7.390;2023-05-25T08:29:32;95486.88;;;10.90;83.17
46638;BME280;32365;46.938;7.390;2023-05-25T08:31:58;95489.66;;;11.24;83.31
46638;BME280;32365;46.938;7.390;2023-05-25T08:34:25;95494.00;;;11.48;81.28
46638;BME280;32365;46.938;7.390;2023-05-25T08:36:55;95501.38;;;11.15;83.77
46638;BME280;32365;46.938;7.390;2023-05-25T08:39:22;95505.19;;;11.13;82.75
46638;BME280;32365;46.938;7.390;2023-05-25T08:41:49;95507.91;;;11.30;82.10
46638;BME280;32365;46.938;7.390;2023-05-25T08:44:16;95509.06;;;11.51;80.90
46638;BME280;32365;46.938;7.390;2023-05-25T08:46:45;95503.19;;;11.55;81.34
46638;BME280;32365;46.938;7.390;2023-05-25T08:49:13;95509.63;;;11.53;82.23
46638;BME280;32365;46.938;7.390;2023-05-25T08:51:41;95504.69;;;11.51;80.69
46638;BME280;32365;46.938;7.390;2023-05-25T08:54:12;95512.97;;;11.65;81.87
46638;BME280;32365;46.938;7.390;2023-05-25T08:56:40;95509.63;;;12.74;78.67
46638;BME280;32365;46.938;7.390;2023-05-25T08:59:17;95522.59;;;12.40;78.96
46638;BME280;32365;46.938;7.390;2023-05-25T09:01:52;95519.94;;;12.86;77.17
46638;BME280;32365;46.938;7.390;2023-05-25T09:04:21;95524.34;;;12.34;77.45
46638;BME280;32365;46.938;7.390;2023-05-25T09:06:48;95527.19;;;12.32;77.40
46638;BME280;32365;46.938;7.390;2023-05-25T09:09:16;95527.81;;;12.57;78.78
46638;BME280;32365;46.938;7.390;2023-05-25T09:11:43;95524.81;;;12.65;77.91
46638;BME280;32365;46.938;7.390;2023-05-25T09:14:10;95522.00;;;12.67;75.72
46638;BME280;32365;46.938;7.390;2023-05-25T09:16:37;95520.53;;;12.93;74.50
46638;BME280;32365;46.938;7.390;2023-05-25T09:19:03;95524.94;;;12.75;75.21
46638;BME280;32365;46.938;7.390;2023-05-25T09:21:29;95524.66;;;13.73;73.86
46638;BME280;32365;46.938;7.390;2023-05-25T09:23:57;95524.25;;;13.81;73.48
46638;BME280;32365;46.938;7.390;2023-05-25T09:26:25;95538.25;;;14.02;72.57
46638;BME280;32365;46.938;7.390;2023-05-25T09:28:51;95551.88;;;14.09;69.41
46638;BME280;32365;46.938;7.390;2023-05-25T09:31:18;95551.38;;;14.40;69.72
46638;BME280;32365;46.938;7.390;2023-05-25T09:33:48;95551.78;;;14.59;67.59
46638;BME280;32365;46.938;7.390;2023-05-25T09:36:15;95553.56;;;14.26;68.89
46638;BME280;32365;46.938;7.390;2023-05-25T09:38:42;95563.75;;;14.00;71.15
46638;BME280;32365;46.938;7.390;2023-05-25T09:41:09;95562.84;;;13.67;72.26
46638;BME280;32365;46.938;7.390;2023-05-25T09:43:37;95563.00;;;14.05;73.46
46638;BME280;32365;46.938;7.390;2023-05-25T09:46:03;95561.34;;;13.93;71.34
46638;BME280;32365;46.938;7.390;2023-05-25T09:48:30;95551.78;;;14.59;68.50
46638;BME280;32365;46.938;7.390;2023-05-25T09:50:56;95556.06;;;14.70;68.82
46638;BME280;32365;46.938;7.390;2023-05-25T09:53:23;95562.28;;;14.37;69.10
46638;BME280;32365;46.938;7.390;2023-05-25T09:55:50;95566.31;;;14.82;70.74
46638;BME280;32365;46.938;7.390;2023-05-25T09:58:17;95566.19;;;14.39;70.43
46638;BME280;32365;46.938;7.390;2023-05-25T10:00:44;95566.53;;;13.71;72.32
46638;BME280;32365;46.938;7.390;2023-05-25T10:03:11;95566.31;;;14.82;69.21
46638;BME280;32365;46.938;7.390;2023-05-25T10:05:39;95562.78;;;15.42;66.72
46638;BME280;32365;46.938;7.390;2023-05-25T10:08:07;95573.94;;;14.61;68.86
46638;BME280;32365;46.938;7.390;2023-05-25T10:10:34;95563.97;;;14.86;67.00
46638;BME280;32365;46.938;7.390;2023-05-25T10:13:02;95579.88;;;14.02;70.84
46638;BME280;32365;46.938;7.390;2023-05-25T10:15:31;95578.53;;;13.72;72.17
46638;BME280;32365;46.938;7.390;2023-05-25T10:18:00;95582.41;;;14.46;69.11
46638;BME280;32365;46.938;7.390;2023-05-25T10:20:29;95590.22;;;14.46;71.63
46638;BME280;32365;46.938;7.390;2023-05-25T10:22:59;95598.66;;;14.04;70.26
46638;BME280;32365;46.938;7.390;2023-05-25T10:25:32;95599.94;;;13.57;71.87
46638;BME280;32365;46.938;7.390;2023-05-25T10:28:01;95604.28;;;13.51;73.25
46638;BME280;32365;46.938;7.390;2023-05-25T10:30:29;95600.41;;;13.54;72.14
46638;BME280;32365;46.938;7.390;2023-05-25T10:32:56;95607.56;;;14.08;71.17
46638;BME280;32365;46.938;7.390;2023-05-25T10:35:24;95610.63;;;14.55;69.34
46638;BME280;32365;46.938;7.390;2023-05-25T10:37:52;95607.38;;;13.93;71.40
46638;BME280;32365;46.938;7.390;2023-05-25T10:40:20;95609.56;;;14.01;71.48
46638;BME280;32365;46.938;7.390;2023-05-25T10:42:47;95622.78;;;13.55;74.50
46638;BME280;32365;46.938;7.390;2023-05-25T10:45:14;95616.50;;;13.95;71.82
46638;BME280;32365;46.938;7.390;2023-05-25T10:47:41;95608.25;;;13.76;72.81
46638;BME280;32365;46.938;7.390;2023-05-25T10:50:21;95599.38;;;13.77;72.36
46638;BME280;32365;46.938;7.390;2023-05-25T10:53:00;95599.94;;;14.56;68.60
46638;BME280;32365;46.938;7.390;2023-05-25T10:55:27;95609.72;;;15.04;70.06
46638;BME280;32365;46.938;7.390;2023-05-25T10:58:06;95604.59;;;15.62;66.07
46638;BME280;32365;46.938;7.390;2023-05-25T11:00:33;95614.28;;;17.60;62.39
46638;BME280;32365;46.938;7.390;2023-05-25T11:02:59;95617.47;;;16.74;60.37
46638;BME280;32365;46.938;7.390;2023-05-25T11:05:31;95613.78;;;16.54;62.89
46638;BME280;32365;46.938;7.390;2023-05-25T11:08:00;95621.28;;;16.14;61.70
46638;BME280;32365;46.938;7.390;2023-05-25T11:10:44;95617.97;;;16.40;62.06
46638;BME280;32365;46.938;7.390;2023-05-25T11:13:32;95629.31;;;15.92;61.99
46638;BME280;32365;46.938;7.390;2023-05-25T11:16:19;95621.00;;;16.06;63.87
46638;BME280;32365;46.938;7.390;2023-05-25T11:18:51;95614.88;;;17.31;63.35
46638;BME280;32365;46.938;7.390;2023-05-25T11:21:40;95627.78;;;18.93;54.37
46638;BME280;32365;46.938;7.390;2023-05-25T11:24:14;95614.47;;;18.39;57.00
46638;BME280;32365;46.938;7.390;2023-05-25T11:26:52;95628.56;;;18.88;54.34
46638;BME280;32365;46.938;7.390;2023-05-25T11:29:20;95617.16;;;18.29;56.29
46638;BME280;32365;46.938;7.390;2023-05-25T11:31:51;95619.78;;;18.34;58.82
46638;BME280;32365;46.938;7.390;2023-05-25T11:34:18;95622.50;;;18.98;54.31
46638;BME280;32365;46.938;7.390;2023-05-25T11:36:46;95632.19;;;19.86;52.65
46638;BME280;32365;46.938;7.390;2023-05-25T11:39:15;95626.06;;;21.38;52.40
46638;BME280;32365;46.938;7.390;2023-05-25T11:41:45;95628.06;;;23.44;45.09
46638;BME280;32365;46.938;7.390;2023-05-25T11:44:13;95630.72;;;22.39;45.90
46638;BME280;32365;46.938;7.390;2023-05-25T11:46:40;95637.72;;;21.65;47.32
46638;BME280;32365;46.938;7.390;2023-05-25T11:49:07;95633.28;;;21.00;48.25
46638;BME280;32365;46.938;7.390;2023-05-25T11:51:34;95634.63;;;21.30;45.34
46638;BME280;32365;46.938;7.390;2023-05-25T11:54:02;95644.66;;;18.76;52.46
46638;BME280;32365;46.938;7.390;2023-05-25T11:56:31;95643.06;;;17.65;57.41
46638;BME280;32365;46.938;7.390;2023-05-25T11:58:57;95634.63;;;21.30;48.61
46638;BME280;32365;46.938;7.390;2023-05-25T12:01:24;95636.88;;;20.71;47.26
46638;BME280;32365;46.938;7.390;2023-05-25T12:03:52;95645.19;;;21.58;48.12
46638;BME280;32365;46.938;7.390;2023-05-25T12:06:24;95641.19;;;22.81;47.31
46638;BME280;32365;46.938;7.390;2023-05-25T12:08:51;95644.59;;;20.43;48.81
46638;BME280;32365;46.938;7.390;2023-05-25T12:11:26;95644.91;;;20.41;51.20
46638;BME280;32365;46.938;7.390;2023-05-25T12:13:54;95640.75;;;19.43;51.93
46638;BME280;32365;46.938;7.390;2023-05-25T12:16:21;95633.06;;;22.55;43.86
46638;BME280;32365;46.938;7.390;2023-05-25T12:18:48;95636.34;;;21.96;47.13
46638;BME280;32365;46.938;7.390;2023-05-25T12:21:15;95631.59;;;21.70;46.22
46638;BME280;32365;46.938;7.390;2023-05-25T12:23:41;95633.44;;;20.89;47.63
46638;BME280;32365;46.938;7.390;2023-05-25T12:26:09;95630.25;;;19.67;49.02
46638;BME280;32365;46.938;7.390;2023-05-25T12:28:36;95630.19;;;18.84;54.46
46638;BME280;32365;46.938;7.390;2023-05-25T12:31:23;95627.59;;;18.39;52.99
46638;BME280;32365;46.938;7.390;2023-05-25T12:34:07;95631.81;;;20.36;47.71
46638;BME280;32365;46.938;7.390;2023-05-25T12:36:52;95618.66;;;22.24;44.79
46638;BME280;32365;46.938;7.390;2023-05-25T12:39:31;95618.69;;;24.45;43.83
46638;BME280;32365;46.938;7.390;2023-05-25T12:42:03;95625.72;;;21.73;47.51
46638;BME280;32365;46.938;7.390;2023-05-25T12:44:32;95616.81;;;21.97;44.42
46638;BME280;32365;46.938;7.390;2023-05-25T12:47:10;95607.19;;;24.76;38.83
46638;BME280;32365;46.938;7.390;2023-05-25T12:49:37;95615.28;;;25.54;38.72
46638;BME280;32365;46.938;7.390;2023-05-25T12:52:05;95617.59;;;22.85;41.85
46638;BME280;32365;46.938;7.390;2023-05-25T12:54:42;95623.84;;;22.16;44.07
46638;BME280;32365;46.938;7.390;2023-05-25T12:57:11;95640.09;;;24.08;41.34
46638;BME280;32365;46.938;7.390;2023-05-25T12:59:39;95623.19;;;22.60;43.56
46638;BME280;32365;46.938;7.390;2023-05-25T13:02:06;95633.22;;;22.08;43.92
46638;BME280;32365;46.938;7.390;2023-05-25T13:04:35;95621.06;;;23.89;40.33
46638;BME280;32365;46.938;7.390;2023-05-25T13:07:02;95624.13;;;21.44;47.76
46638;BME280;32365;46.938;7.390;2023-05-25T13:09:29;95630.16;;;21.31;49.42
46638;BME280;32365;46.938;7.390;2023-05-25T13:11:56;95628.47;;;21.21;46.03
46638;BME280;32365;46.938;7.390;2023-05-25T13:14:24;95633.09;;;21.57;47.67
46638;BME280;32365;46.938;7.390;2023-05-25T13:16:52;95632.69;;;22.20;43.95
46638;BME280;32365;46.938;7.390;2023-05-25T13:19:20;95633.19;;;22.95;43.53
46638;BME280;32365;46.938;7.390;2023-05-25T13:21:48;95625.69;;;22.66;42.48
46638;BME280;32365;46.938;7.390;2023-05-25T13:24:16;95632.34;;;24.21;39.23
46638;BME280;32365;46.938;7.390;2023-05-25T13:26:43;95630.59;;;21.80;46.81
46638;BME280;32365;46.938;7.390;2023-05-25T13:29:10;95633.19;;;22.22;47.88
46638;BME280;32365;46.938;7.390;2023-05-25T13:31:37;95627.25;;;22.89;47.39
46638;BME280;32365;46.938;7.390;2023-05-25T13:34:03;95624.19;;;23.50;43.11
46638;BME280;32365;46.938;7.390;2023-05-25T13:36:29;95616.69;;;22.30;46.59
46638;BME280;32365;46.938;7.390;2023-05-25T13:39:00;95615.72;;;23.71;43.86
46638;BME280;32365;46.938;7.390;2023-05-25T13:41:29;95619.78;;;22.32;44.28
46638;BME280;32365;46.938;7.390;2023-05-25T13:43:55;95623.09;;;22.52;44.41
46638;BME280;32365;46.938;7.390;2023-05-25T13:46:22;95630.44;;;22.55;43.85
46638;BME280;32365;46.938;7.390;2023-05-25T13:48:48;95630.72;;;22.53;44.27
46638;BME280;32365;46.938;7.390;2023-05-25T13:51:16;95620.47;;;21.59;45.74
46638;BME280;32365;46.938;7.390;2023-05-25T13:53:42;95630.69;;;22.17;44.92
46638;BME280;32365;46.938;7.390;2023-05-25T13:56:10;95619.81;;;22.69;43.07
46638;BME280;32365;46.938;7.390;2023-05-25T13:58:37;95622.88;;;24.11;43.46
46638;BME280;32365;46.938;7.390;2023-05-25T14:01:03;95621.16;;;25.03;43.01
46638;BME280;32365;46.938;7.390;2023-05-25T14:03:30;95620.38;;;24.15;39.93
46638;BME280;32365;46.938;7.390;2023-05-25T14:05:57;95613.16;;;22.94;44.00
46638;BME280;32365;46.938;7.390;2023-05-25T14:08:23;95614.31;;;24.49;42.19
46638;BME280;32365;46.938;7.390;2023-05-25T14:10:50;95606.91;;;22.67;44.68
46638;BME280;32365;46.938;7.390;2023-05-25T14:13:18;95607.44;;;24.04;45.93
46638;BME280;32365;46.938;7.390;2023-05-25T14:15:44;95605.63;;;24.49;42.81
46638;BME280;32365;46.938;7.390;2023-05-25T14:18:11;95615.47;;;21.72;47.21
46638;BME280;32365;46.938;7.390;2023-05-25T14:20:37;95621.69;;;22.18;46.18
46638;BME280;32365;46.938;7.390;2023-05-25T14:23:06;95621.94;;;21.18;48.73
46638;BME280;32365;46.938;7.390;2023-05-25T14:25:33;95619.81;;;22.91;44.80
46638;BME280;32365;46.938;7.390;2023-05-25T14:27:59;95619.78;;;22.32;44.87
46638;BME280;32365;46.938;7.390;2023-05-25T14:30:27;95624.78;;;22.20;45.07
46638;BME280;32365;46.938;7.390;2023-05-25T14:32:54;95622.44;;;20.68;48.15
46638;BME280;32365;46.938;7.390;2023-05-25T14:35:20;95625.06;;;21.34;49.54
46638;BME280;32365;46.938;7.390;2023-05-25T14:37:47;95621.44;;;20.83;51.49
46638;BME280;32365;46.938;7.390;2023-05-25T14:40:14;95630.94;;;23.11;44.53
46638;BME280;32365;46.938;7.390;2023-05-25T14:42:41;95631.59;;;23.17;45.33
46638;BME280;32365;46.938;7.390;2023-05-25T14:45:09;95632.31;;;21.43;47.11
46638;BME280;32365;46.938;7.390;2023-05-25T14:47:37;95632.47;;;21.18;49.38
46638;BME280;32365;46.938;7.390;2023-05-25T14:50:05;95643.97;;;20.70;50.21
46638;BME280;32365;46.938;7.390;2023-05-25T14:52:32;95640.97;;;20.96;50.88
46638;BME280;32365;46.938;7.390;2023-05-25T14:55:00;95635.75;;;21.71;48.21
46638;BME280;32365;46.938;7.390;2023-05-25T14:57:27;95642.97;;;22.07;48.53
46638;BME280;32365;46.938;7.390;2023-05-25T15:02:20;95650.66;;;23.59;43.94
46638;BME280;32365;46.938;7.390;2023-05-25T15:04:47;95644.56;;;22.59;45.06
46638;BME280;32365;46.938;7.390;2023-05-25T15:07:14;95647.91;;;24.13;41.39
46638;BME280;32365;46.938;7.390;2023-05-25T15:09:41;95641.34;;;24.02;42.53
46638;BME280;32365;46.938;7.390;2023-05-25T15:12:07;95647.41;;;23.62;44.10
46638;BME280;32365;46.938;7.390;2023-05-25T15:14:34;95653.25;;;22.09;48.96
46638;BME280;32365;46.938;7.390;2023-05-25T15:17:04;95643.97;;;22.62;46.78
46638;BME280;32365;46.938;7.390;2023-05-25T15:19:30;95656.41;;;21.50;48.63
46638;BME280;32365;46.938;7.390;2023-05-25T15:21:58;95658.03;;;22.07;46.44
46638;BME280;32365;46.938;7.390;2023-05-25T15:24:24;95654.94;;;23.87;43.31
46638;BME280;32365;46.938;7.390;2023-05-25T15:26:51;95664.28;;;22.75;47.49
46638;BME280;32365;46.938;7.390;2023-05-25T15:29:17;95659.56;;;22.36;46.73
46638;BME280;32365;46.938;7.390;2023-05-25T15:31:44;95654.09;;;21.15;49.10
46638;BME280;32365;46.938;7.390;2023-05-25T15:34:11;95658.69;;;20.52;51.20
46638;BME280;32365;46.938;7.390;2023-05-25T15:36:39;95656.63;;;20.68;50.74
46638;BME280;32365;46.938;7.390;2023-05-25T15:39:06;95658.88;;;19.69;54.62
46638;BME280;32365;46.938;7.390;2023-05-25T15:41:35;95666.09;;;19.82;54.21
46638;BME280;32365;46.938;7.390;2023-05-25T15:44:02;95661.81;;;19.03;54.04
46638;BME280;32365;46.938;7.390;2023-05-25T15:46:32;95670.59;;;18.83;56.81
46638;BME280;32365;46.938;7.390;2023-05-25T15:48:58;95668.47;;;18.85;56.08
46638;BME280;32365;46.938;7.390;2023-05-25T15:51:25;95669.00;;;19.22;56.34
46638;BME280;32365;46.938;7.390;2023-05-25T15:53:52;95665.94;;;19.10;55.74
46638;BME280;32365;46.938;7.390;2023-05-25T15:56:20;95670.47;;;19.63;56.20
46638;BME280;32365;46.938;7.390;2023-05-25T15:58:47;95673.00;;;19.44;54.72
46638;BME280;32365;46.938;7.390;2023-05-25T16:01:14;95672.59;;;19.61;56.14
46638;BME280;32365;46.938;7.390;2023-05-25T16:03:40;95668.88;;;20.15;54.53
46638;BME280;32365;46.938;7.390;2023-05-25T16:06:07;95664.53;;;18.88;55.96
46638;BME280;32365;46.938;7.390;2023-05-25T16:08:34;95671.50;;;18.63;58.77
46638;BME280;32365;46.938;7.390;2023-05-25T16:11:00;95670.53;;;18.88;59.14
46638;BME280;32365;46.938;7.390;2023-05-25T16:13:29;95664.31;;;18.79;56.87
46638;BME280;32365;46.938;7.390;2023-05-25T16:15:55;95659.66;;;18.71;57.09
46638;BME280;32365;46.938;7.390;2023-05-25T16:18:21;95672.00;;;19.40;56.64
46638;BME280;32365;46.938;7.390;2023-05-25T16:20:48;95670.78;;;18.52;58.98
46638;BME280;32365;46.938;7.390;2023-05-25T16:23:20;95666.97;;;18.29;59.67
46638;BME280;32365;46.938;7.390;2023-05-25T16:25:46;95671.69;;;18.27;61.53
46638;BME280;32365;46.938;7.390;2023-05-25T16:28:13;95669.59;;;18.29;61.13
46638;BME280;32365;46.938;7.390;2023-05-25T16:30:41;95667.81;;;18.69;58.64
46638;BME280;32365;46.938;7.390;2023-05-25T16:33:07;95676.56;;;18.49;60.47
46638;BME280;32365;46.938;7.390;2023-05-25T16:35:34;95682.09;;;18.42;60.52
46638;BME280;32365;46.938;7.390;2023-05-25T16:38:00;95670.16;;;18.21;59.35
46638;BME280;32365;46.938;7.390;2023-05-25T16:40:27;95679.38;;;18.03;61.26
46638;BME280;32365;46.938;7.390;2023-05-25T16:42:54;95685.72;;;17.76;60.67
46638;BME280;32365;46.938;7.390;2023-05-25T16:45:20;95682.81;;;17.82;61.40
46638;BME280;32365;46.938;7.390;2023-05-25T16:47:48;95693.31;;;17.72;62.26
46638;BME280;32365;46.938;7.390;2023-05-25T16:50:15;95687.56;;;17.54;61.40
46638;BME280;32365;46.938;7.390;2023-05-25T16:52:42;95683.13;;;17.50;63.55
46638;BME280;32365;46.938;7.390;2023-05-25T16:55:10;95692.81;;;17.39;62.31
46638;BME280;32365;46.938;7.390;2023-05-25T16:57:38;95694.41;;;17.45;63.67
46638;BME280;32365;46.938;7.390;2023-05-25T17:00:06;95690.44;;;17.74;62.72
46638;BME280;32365;46.938;7.390;2023-05-25T17:02:32;95682.88;;;17.57;62.66
46638;BME280;32365;46.938;7.390;2023-05-25T17:05:00;95693.09;;;17.43;61.75
46638;BME280;32365;46.938;7.390;2023-05-25T17:07:30;95688.38;;;17.50;61.99
46638;BME280;32365;46.938;7.390;2023-05-25T17:09:57;95691.00;;;17.34;63.61
46638;BME280;32365;46.938;7.390;2023-05-25T17:12:23;95691.00;;;17.39;63.16
46638;BME280;32365;46.938;7.390;2023-05-25T17:14:50;95694.13;;;17.36;64.55
46638;BME280;32365;46.938;7.390;2023-05-25T17:17:17;95697.03;;;17.25;64.63
46638;BME280;32365;46.938;7.390;2023-05-25T17:19:43;95692.31;;;17.27;64.80
46638;BME280;32365;46.938;7.390;2023-05-25T17:22:11;95691.00;;;17.29;63.93
46638;BME280;32365;46.938;7.390;2023-05-25T17:24:38;95688.91;;;17.42;64.30
46638;BME280;32365;46.938;7.390;2023-05-25T17:27:04;95686.53;;;17.40;63.83
46638;BME280;32365;46.938;7.390;2023-05-25T17:29:31;95692.06;;;17.28;64.09
46638;BME280;32365;46.938;7.390;2023-05-25T17:31:57;95682.09;;;17.51;62.98
46638;BME280;32365;46.938;7.390;2023-05-25T17:34:24;95698.84;;;17.45;63.47
46638;BME280;32365;46.938;7.390;2023-05-25T17:36:50;95687.06;;;17.47;63.26
46638;BME280;32365;46.938;7.390;2023-05-25T17:39:18;95694.66;;;17.33;64.75
46638;BME280;32365;46.938;7.390;2023-05-25T17:41:44;95699.38;;;17.11;65.91
46638;BME280;32365;46.938;7.390;2023-05-25T17:44:11;95700.66;;;17.03;66.07
46638;BME280;32365;46.938;7.390;2023-05-25T17:46:38;95697.25;;;16.92;67.13
46638;BME280;32365;46.938;7.390;2023-05-25T17:49:04;95702.22;;;16.88;66.96
46638;BME280;32365;46.938;7.390;2023-05-25T17:51:31;95699.06;;;16.81;67.20
46638;BME280;32365;46.938;7.390;2023-05-25T17:53:57;95699.59;;;16.88;67.24
46638;BME280;32365;46.938;7.390;2023-05-25T17:56:25;95708.16;;;16.63;67.54
46638;BME280;32365;46.938;7.390;2023-05-25T17:58:52;95702.38;;;16.51;67.45